KMRC/MRC METAR and TAF weather

Enter ICAO airport designator
Station Type Date Time Source
KMRC METAR 2022/06/30 13:15 UTC NOAA

KMRC 301315Z AUTO 22004KT 9SM CLR 26/26 A3018 RMK A01


Station Type Date Time Source
KMRC Decoded METAR 2022/06/30 13:15 UTC NOAA

Columbia / Maury County, TN, United States (KMRC) 35-33N 087-11W
Jun 30, 2022 - 09:15 AM EDT / 2022.06.30 1315 UTC
Wind: from the SW (220 degrees) at 5 MPH (4 KT):0
Visibility: 9 mile(s):0
Sky conditions: clear
Temperature: 78 F (26 C)
Dew Point: 78 F (26 C)
Relative Humidity: 100%
Pressure (altimeter): 30.18 in. Hg (1022 hPa)
ob: KMRC 301315Z AUTO 22004KT 9SM CLR 26/26 A3018 RMK A01
cycle: 13

Station Type Date Time Source
KMRC TAF 2009/08/31 19:45 UTC NOAA

METAR KMRC 311945Z AUTO 06008KT 10SM CLR 26/12 A3010
RMK AO1 T02550116 $

Example: see airport list